Time;durP1;ratioP1;P1;durP2;ratioP2;P2;SDS_P1;SDS_P2;PMS_P1;PMS_P2;Temp;Humidity;BMP_temperature;BMP_pressure;BME280_temperature;BME280_humidity;BME280_pressure;Samples;Min_cycle;Max_cycle;Signal;HPM_P1;HPM_P2
2022/12/19 00:01:17;;;;;;;37.88;26.10;;;3.50;99.90;;;;;;2076491;28;20033;-70
2022/12/19 00:02:17;;;;;;;37.70;25.73;;;3.50;99.90;;;;;;2075811;28;20022;-70
2022/12/19 00:03:18;;;;;;;37.47;26.13;;;3.50;99.90;;;;;;2076929;28;20017;-70
2022/12/19 00:04:20;;;;;;;37.40;25.63;;;3.50;99.90;;;;;;2068530;28;20026;-70
2022/12/19 00:05:21;;;;;;;36.75;25.30;;;3.50;99.90;;;;;;2076426;28;20270;-70
2022/12/19 00:06:22;;;;;;;37.00;24.73;;;3.60;99.90;;;;;;2075088;28;20021;-70
2022/12/19 00:07:23;;;;;;;39.17;26.27;;;3.50;99.90;;;;;;2075518;28;20048;-70
2022/12/19 00:08:23;;;;;;;37.13;26.27;;;3.60;99.90;;;;;;2075444;28;20029;-70
2022/12/19 00:09:24;;;;;;;38.38;26.08;;;3.60;99.90;;;;;;2074969;28;20486;-70
2022/12/19 00:10:25;;;;;;;37.55;26.17;;;3.60;99.90;;;;;;2075031;28;20034;-70
2022/12/19 00:11:27;;;;;;;39.30;25.50;;;3.60;99.90;;;;;;2076474;28;20959;-70
2022/12/19 00:12:27;;;;;;;38.45;26.20;;;3.60;99.90;;;;;;2077490;28;20029;-70
2022/12/19 00:13:30;;;;;;;39.10;26.42;;;3.60;99.90;;;;;;2077896;28;20053;-70
2022/12/19 00:14:31;;;;;;;39.70;26.98;;;3.60;99.90;;;;;;2075986;28;20029;-70
2022/12/19 00:15:33;;;;;;;38.25;25.60;;;3.60;99.90;;;;;;2075922;28;20022;-70
2022/12/19 00:16:34;;;;;;;34.65;25.70;;;3.60;99.90;;;;;;2076114;28;20038;-70
2022/12/19 00:17:34;;;;;;;40.03;27.13;;;3.60;99.90;;;;;;2077795;28;20056;-69
2022/12/19 00:18:35;;;;;;;37.63;25.80;;;3.60;99.90;;;;;;2075133;28;20539;-69
2022/12/19 00:19:36;;;;;;;39.60;26.45;;;3.60;99.90;;;;;;2075957;28;20036;-70
2022/12/19 00:20:36;;;;;;;35.08;24.70;;;3.60;99.90;;;;;;2075128;28;20490;-69
2022/12/19 00:21:37;;;;;;;38.10;26.40;;;3.60;99.90;;;;;;2082645;28;20115;-69
2022/12/19 00:22:37;;;;;;;39.17;26.17;;;3.70;99.90;;;;;;2082934;28;20095;-69
2022/12/19 00:23:38;;;;;;;37.05;26.50;;;3.70;99.90;;;;;;2077453;28;20091;-70
2022/12/19 00:24:39;;;;;;;39.25;26.20;;;3.70;99.90;;;;;;2076051;28;20034;-69
2022/12/19 00:25:39;;;;;;;34.60;25.42;;;3.70;99.90;;;;;;2075215;28;20033;-70
2022/12/19 00:26:40;;;;;;;39.17;27.17;;;3.70;99.90;;;;;;2076472;28;20192;-70
2022/12/19 00:27:40;;;;;;;37.83;25.27;;;3.70;99.90;;;;;;2077133;28;20037;-70
2022/12/19 00:28:43;;;;;;;35.00;25.33;;;3.70;99.90;;;;;;2078105;28;20113;-70
2022/12/19 00:29:43;;;;;;;36.25;24.73;;;3.70;99.90;;;;;;2075156;28;20020;-70
2022/12/19 00:30:44;;;;;;;38.08;26.27;;;3.70;99.90;;;;;;2076744;28;20113;-70
2022/12/19 00:31:45;;;;;;;40.88;27.35;;;3.70;99.90;;;;;;2076143;28;20030;-70
2022/12/19 00:32:46;;;;;;;39.60;25.88;;;3.70;99.90;;;;;;2076280;28;20782;-69
2022/12/19 00:33:47;;;;;;;34.97;24.73;;;3.70;99.90;;;;;;2077255;28;20496;-70
2022/12/19 00:34:48;;;;;;;38.38;25.85;;;3.70;99.90;;;;;;2077418;28;20685;-69
2022/12/19 00:35:48;;;;;;;35.88;25.60;;;3.70;99.90;;;;;;2075165;28;20509;-70
2022/12/19 00:36:49;;;;;;;37.60;25.40;;;3.70;99.90;;;;;;2075726;28;20034;-70
2022/12/19 00:37:49;;;;;;;38.03;26.50;;;3.70;99.90;;;;;;2075039;28;20057;-70
2022/12/19 00:38:52;;;;;;;37.88;25.48;;;3.70;99.90;;;;;;2074976;28;20037;-69
2022/12/19 00:39:52;;;;;;;38.67;25.70;;;3.70;99.90;;;;;;2076212;28;20029;-70
2022/12/19 00:40:53;;;;;;;38.95;26.02;;;3.70;99.90;;;;;;2075206;28;20045;-70
2022/12/19 00:41:54;;;;;;;34.55;24.60;;;3.70;99.90;;;;;;2075661;28;20053;-70
2022/12/19 00:42:54;;;;;;;35.90;25.13;;;3.70;99.90;;;;;;2075677;28;20034;-70
2022/12/19 00:43:58;;;;;;;34.90;24.63;;;3.70;99.90;;;;;;2076216;28;20492;-70
2022/12/19 00:44:58;;;;;;;41.33;26.45;;;3.70;99.90;;;;;;2073150;28;20034;-70
2022/12/19 00:46:02;;;;;;;41.92;26.58;;;3.80;99.90;;;;;;2076266;28;20026;-69
2022/12/19 00:47:03;;;;;;;38.58;26.63;;;3.80;99.90;;;;;;2076636;28;20013;-70
2022/12/19 00:48:04;;;;;;;37.22;26.77;;;3.80;99.90;;;;;;2076258;28;20022;-70
2022/12/19 00:49:05;;;;;;;36.45;25.10;;;3.80;99.90;;;;;;2076116;28;20030;-70
2022/12/19 00:50:06;;;;;;;38.17;25.70;;;3.80;99.90;;;;;;2076143;28;20624;-70
2022/12/19 00:51:12;;;;;;;37.08;25.35;;;3.80;99.90;;;;;;2077320;28;20420;-70
2022/12/19 00:52:13;;;;;;;39.47;26.17;;;3.80;99.90;;;;;;2076111;28;20022;-70
2022/12/19 00:53:13;;;;;;;37.78;25.63;;;3.80;99.90;;;;;;2076571;28;20029;-70
2022/12/19 00:54:14;;;;;;;38.40;25.83;;;3.80;99.90;;;;;;2076543;28;20037;-69
2022/12/19 00:55:14;;;;;;;36.85;25.92;;;3.80;99.90;;;;;;2075860;28;21542;-69
2022/12/19 00:56:21;;;;;;;35.30;25.80;;;3.80;99.90;;;;;;2075956;28;20424;-69
2022/12/19 00:57:21;;;;;;;37.97;25.80;;;3.80;99.90;;;;;;2075093;28;20090;-70
2022/12/19 00:58:22;;;;;;;41.92;27.38;;;3.80;99.90;;;;;;2076205;28;20075;-70
2022/12/19 00:59:23;;;;;;;36.10;25.40;;;3.80;99.90;;;;;;2075474;28;20559;-70
2022/12/19 01:00:23;;;;;;;38.00;25.33;;;3.80;99.90;;;;;;2076945;28;20413;-70
2022/12/19 01:01:29;;;;;;;37.53;26.05;;;3.80;99.90;;;;;;2075516;28;20040;-69
2022/12/19 01:02:30;;;;;;;33.25;24.63;;;3.80;99.90;;;;;;2074388;28;20120;-69
2022/12/19 01:03:30;;;;;;;35.92;25.50;;;3.80;99.90;;;;;;2075177;28;20115;-70
2022/12/19 01:04:31;;;;;;;35.72;24.95;;;3.90;99.90;;;;;;2073392;28;20538;-70
2022/12/19 01:05:32;;;;;;;38.30;26.58;;;3.80;99.90;;;;;;2076584;28;20362;-70
2022/12/19 01:06:32;;;;;;;40.45;27.08;;;3.80;99.90;;;;;;2077155;28;20025;-71
2022/12/19 01:07:33;;;;;;;35.35;25.17;;;3.80;99.90;;;;;;2074062;28;20096;-69
2022/12/19 01:08:33;;;;;;;41.80;27.35;;;3.80;99.90;;;;;;2074700;28;20026;-69
2022/12/19 01:09:35;;;;;;;36.72;25.77;;;3.80;99.90;;;;;;2083669;28;20025;-69
2022/12/19 01:10:36;;;;;;;38.53;26.75;;;3.90;99.90;;;;;;2083119;28;20037;-70
2022/12/19 01:12:56;;;;;;;34.60;24.60;;;3.90;99.90;;;;;;2075879;28;20033;-69
2022/12/19 01:13:56;;;;;;;33.58;23.40;;;3.80;99.90;;;;;;2073598;28;20041;-70
2022/12/19 01:14:57;;;;;;;36.90;25.50;;;3.80;99.90;;;;;;2075817;28;20623;-69
2022/12/19 01:16:02;;;;;;;36.97;24.65;;;3.80;99.90;;;;;;2076453;28;20080;-69
2022/12/19 01:17:03;;;;;;;37.17;26.17;;;3.90;99.90;;;;;;2075672;28;20448;-69
2022/12/19 01:18:03;;;;;;;37.30;25.05;;;3.90;99.90;;;;;;2075665;28;20095;-69
2022/12/19 01:19:04;;;;;;;34.17;24.38;;;3.90;99.90;;;;;;2077124;28;20088;-69
2022/12/19 01:20:05;;;;;;;38.78;25.92;;;3.90;99.90;;;;;;2076160;28;20034;-69
2022/12/19 01:21:09;;;;;;;36.03;24.73;;;3.90;99.90;;;;;;2076708;28;20440;-69
2022/12/19 01:22:11;;;;;;;36.35;25.13;;;3.90;99.90;;;;;;2075854;28;20037;-69
2022/12/19 01:23:12;;;;;;;36.70;25.48;;;3.90;99.90;;;;;;2076212;28;20022;-70
2022/12/19 01:24:13;;;;;;;35.75;25.15;;;4.00;99.90;;;;;;2074634;28;20052;-69
2022/12/19 01:25:14;;;;;;;36.30;25.13;;;3.90;99.90;;;;;;2075845;28;20030;-69
2022/12/19 01:26:14;;;;;;;36.10;25.85;;;4.00;99.90;;;;;;2075255;28;20460;-69
2022/12/19 01:27:15;;;;;;;40.47;26.40;;;4.00;99.90;;;;;;2074074;28;20038;-69
2022/12/19 01:28:15;;;;;;;37.60;25.10;;;4.00;99.90;;;;;;2076347;28;20413;-69
2022/12/19 01:29:16;;;;;;;34.10;23.48;;;4.00;99.90;;;;;;2075985;28;20026;-69
2022/12/19 01:30:16;;;;;;;35.60;23.90;;;4.00;99.90;;;;;;2075535;28;20030;-70
2022/12/19 01:31:17;;;;;;;36.45;26.30;;;4.00;99.90;;;;;;2074831;28;20061;-69
2022/12/19 01:32:18;;;;;;;36.28;24.90;;;4.00;99.90;;;;;;2076870;28;20032;-69
2022/12/19 01:33:19;;;;;;;34.88;24.52;;;4.10;99.90;;;;;;2075728;28;20021;-69
2022/12/19 01:34:20;;;;;;;35.17;25.15;;;4.10;99.90;;;;;;2075056;28;20909;-69
2022/12/19 01:35:21;;;;;;;37.92;24.67;;;4.10;99.90;;;;;;2075023;28;20901;-69
2022/12/19 01:36:21;;;;;;;34.83;25.10;;;4.10;99.90;;;;;;2083793;28;20108;-69
2022/12/19 01:37:22;;;;;;;33.83;23.42;;;4.10;99.90;;;;;;2074466;28;20028;-69
2022/12/19 01:38:22;;;;;;;36.00;25.17;;;4.10;99.90;;;;;;2077089;28;20104;-69
2022/12/19 01:39:23;;;;;;;33.08;23.92;;;4.10;99.90;;;;;;2073484;28;20654;-69
2022/12/19 01:40:23;;;;;;;32.80;23.55;;;4.10;99.90;;;;;;2075257;28;20075;-69
2022/12/19 01:41:24;;;;;;;36.17;25.67;;;4.10;99.90;;;;;;2083723;28;20476;-69
2022/12/19 01:42:25;;;;;;;38.25;25.15;;;4.10;99.90;;;;;;2075303;28;20030;-69
2022/12/19 01:43:31;;;;;;;38.75;25.40;;;4.10;99.90;;;;;;2076751;28;20089;-69
2022/12/19 01:44:33;;;;;;;32.42;23.98;;;4.10;99.90;;;;;;2075072;28;20108;-69
2022/12/19 01:45:35;;;;;;;33.28;23.98;;;4.20;99.90;;;;;;2072838;28;20029;-69
2022/12/19 01:46:47;;;;;;;34.80;24.45;;;4.20;99.90;;;;;;2075450;28;20029;-69
2022/12/19 01:47:53;;;;;;;36.13;24.58;;;4.20;99.90;;;;;;2073891;28;20677;-69
2022/12/19 01:48:54;;;;;;;34.47;24.00;;;4.20;99.90;;;;;;2076007;28;20033;-69
2022/12/19 01:49:55;;;;;;;33.25;23.67;;;4.20;99.90;;;;;;2076798;28;20033;-69
2022/12/19 01:51:02;;;;;;;36.47;24.10;;;4.20;99.90;;;;;;2075939;28;20074;-69
2022/12/19 01:52:06;;;;;;;36.90;25.42;;;4.20;99.90;;;;;;2074559;28;20021;-69
2022/12/19 01:53:09;;;;;;;37.58;25.25;;;4.20;99.90;;;;;;2076412;28;20059;-69
2022/12/19 01:54:16;;;;;;;37.67;25.08;;;4.20;99.90;;;;;;2075951;28;20025;-69
2022/12/19 01:55:17;;;;;;;35.15;24.83;;;4.10;99.90;;;;;;2074697;28;20026;-70
2022/12/19 01:56:29;;;;;;;39.00;24.67;;;4.20;99.90;;;;;;2075134;28;20512;-69
2022/12/19 01:57:29;;;;;;;38.20;24.00;;;4.20;99.90;;;;;;2076043;28;20030;-69
2022/12/19 01:58:30;;;;;;;39.35;25.48;;;4.20;99.90;;;;;;2073752;28;20172;-69
2022/12/19 01:59:41;;;;;;;39.33;25.52;;;4.20;99.90;;;;;;2075929;28;20034;-69
2022/12/19 02:00:43;;;;;;;35.70;24.20;;;4.20;99.90;;;;;;2077211;28;20053;-70
2022/12/19 02:01:43;;;;;;;36.10;24.15;;;4.20;99.90;;;;;;2077063;28;20535;-70
2022/12/19 02:02:51;;;;;;;34.13;23.30;;;4.20;99.90;;;;;;2076284;28;20455;-71
2022/12/19 02:03:53;;;;;;;33.95;24.45;;;4.20;99.90;;;;;;2075165;28;20021;-70
2022/12/19 02:04:54;;;;;;;33.15;24.13;;;4.20;99.90;;;;;;2072209;28;20687;-70
2022/12/19 02:05:56;;;;;;;35.20;24.33;;;4.30;99.90;;;;;;2076024;28;20049;-71
2022/12/19 02:06:58;;;;;;;37.63;25.02;;;4.20;99.90;;;;;;2075115;28;20021;-70
2022/12/19 02:08:00;;;;;;;33.60;24.40;;;4.30;99.90;;;;;;2076195;28;20025;-70
2022/12/19 02:09:01;;;;;;;36.60;25.65;;;4.30;99.90;;;;;;2075558;28;20663;-70
2022/12/19 02:10:02;;;;;;;37.70;25.13;;;4.30;99.90;;;;;;2076156;28;20031;-70
2022/12/19 02:11:02;;;;;;;35.22;24.10;;;4.30;99.90;;;;;;2077065;28;20172;-71
2022/12/19 02:12:03;;;;;;;34.85;25.08;;;4.30;99.90;;;;;;2074487;28;20022;-70
2022/12/19 02:13:05;;;;;;;35.08;25.10;;;4.30;99.90;;;;;;2074400;28;20677;-70
2022/12/19 02:14:05;;;;;;;38.60;25.20;;;4.30;99.90;;;;;;2076478;28;20155;-70
2022/12/19 02:15:07;;;;;;;35.50;24.13;;;4.40;99.90;;;;;;2075356;28;20104;-71
2022/12/19 02:16:25;;;;;;;37.22;25.92;;;4.40;99.90;;;;;;2074301;28;20029;-70
2022/12/19 02:17:53;;;;;;;33.40;24.08;;;4.40;99.90;;;;;;2074898;28;20600;-70
2022/12/19 02:19:24;;;;;;;38.97;25.15;;;4.40;99.90;;;;;;2074478;28;20133;-70
2022/12/19 02:20:28;;;;;;;35.90;24.33;;;4.30;99.90;;;;;;2074588;28;20128;-71
2022/12/19 02:21:31;;;;;;;32.28;23.50;;;4.30;99.90;;;;;;2074808;28;20029;-70
2022/12/19 02:22:52;;;;;;;37.45;25.35;;;4.30;99.90;;;;;;2083005;28;20678;-70
2022/12/19 02:24:11;;;;;;;36.92;24.15;;;4.40;99.90;;;;;;2066925;28;20533;-70
2022/12/19 02:25:49;;;;;;;32.90;23.88;;;4.40;99.90;;;;;;2076054;28;20025;-70
2022/12/19 02:27:15;;;;;;;33.63;24.10;;;4.40;99.90;;;;;;2073494;28;20816;-70
2022/12/19 02:28:30;;;;;;;33.35;23.33;;;4.40;99.90;;;;;;2077666;28;20025;-70
2022/12/19 02:29:39;;;;;;;35.72;24.92;;;4.40;99.90;;;;;;2077931;28;20034;-70
2022/12/19 02:30:59;;;;;;;33.65;24.27;;;4.40;99.90;;;;;;2075423;28;20026;-71
2022/12/19 02:32:25;;;;;;;33.28;23.35;;;4.40;99.90;;;;;;2075636;28;20481;-71
2022/12/19 02:33:52;;;;;;;36.13;23.20;;;4.40;99.90;;;;;;2075367;28;20053;-71
2022/12/19 02:35:12;;;;;;;32.20;23.38;;;4.40;99.90;;;;;;2077629;28;20025;-71
2022/12/19 02:36:37;;;;;;;33.70;23.40;;;4.40;99.90;;;;;;2076772;28;20022;-70
2022/12/19 02:37:48;;;;;;;35.90;23.42;;;4.50;99.90;;;;;;2076224;28;20057;-71
2022/12/19 02:39:05;;;;;;;35.50;24.05;;;4.50;99.90;;;;;;2075769;28;20596;-70
2022/12/19 02:40:20;;;;;;;31.98;22.77;;;4.50;99.90;;;;;;2076767;28;20044;-71
2022/12/19 02:41:42;;;;;;;34.15;23.98;;;4.60;99.90;;;;;;2078091;28;20073;-71
2022/12/19 02:42:47;;;;;;;33.03;22.83;;;4.50;99.90;;;;;;2077686;28;20037;-71
2022/12/19 02:43:51;;;;;;;31.80;22.90;;;4.50;99.90;;;;;;2076487;28;20588;-71
2022/12/19 02:44:52;;;;;;;35.05;24.27;;;4.60;99.90;;;;;;2077748;28;20034;-70
2022/12/19 02:45:54;;;;;;;37.95;24.45;;;4.60;99.90;;;;;;2077371;28;20040;-71
2022/12/19 02:46:57;;;;;;;35.50;23.23;;;4.60;99.90;;;;;;2077721;28;20075;-70
2022/12/19 02:48:00;;;;;;;35.42;23.92;;;4.70;99.90;;;;;;2078899;28;20022;-71
2022/12/19 02:49:01;;;;;;;34.22;23.52;;;4.70;99.90;;;;;;2078468;28;20049;-70
2022/12/19 02:50:03;;;;;;;30.30;23.08;;;4.70;99.90;;;;;;2078654;28;20104;-70
2022/12/19 02:51:04;;;;;;;32.70;22.40;;;4.70;99.90;;;;;;2076455;28;20037;-70
2022/12/19 02:52:12;;;;;;;30.35;21.67;;;4.70;99.90;;;;;;2076847;28;20038;-71
2022/12/19 02:53:14;;;;;;;31.60;22.10;;;4.70;99.90;;;;;;2076468;28;20536;-70
2022/12/19 02:54:15;;;;;;;31.77;23.13;;;4.80;99.90;;;;;;2077506;28;20034;-70
2022/12/19 02:55:20;;;;;;;30.08;21.52;;;4.80;99.90;;;;;;2077229;28;20029;-70
2022/12/19 02:56:50;;;;;;;31.70;22.25;;;4.80;99.90;;;;;;2077595;28;20381;-71
2022/12/19 02:58:30;;;;;;;29.23;21.02;;;4.80;99.90;;;;;;2075109;28;20935;-70
2022/12/19 02:59:54;;;;;;;31.85;22.55;;;4.80;99.90;;;;;;2077481;28;20033;-70
2022/12/19 03:01:30;;;;;;;32.13;21.10;;;4.80;99.90;;;;;;2077908;28;20791;-71
2022/12/19 03:02:30;;;;;;;29.48;20.95;;;4.80;99.90;;;;;;2076672;28;20061;-71
2022/12/19 03:04:09;;;;;;;27.73;20.90;;;4.80;99.90;;;;;;2077731;28;20113;-70
2022/12/19 03:05:38;;;;;;;29.58;21.95;;;4.90;99.90;;;;;;2074802;28;20144;-70
2022/12/19 03:06:49;;;;;;;29.95;21.60;;;4.90;99.90;;;;;;2078029;28;20025;-70
2022/12/19 03:08:14;;;;;;;31.92;22.08;;;4.90;99.90;;;;;;2077858;28;20017;-71
2022/12/19 03:09:55;;;;;;;26.70;19.98;;;4.90;99.90;;;;;;2076592;28;20029;-72
2022/12/19 03:11:03;;;;;;;30.25;22.05;;;4.90;99.90;;;;;;2078495;28;20033;-71
2022/12/19 03:12:10;;;;;;;27.88;20.85;;;4.90;99.90;;;;;;2077339;28;20026;-70
2022/12/19 03:13:29;;;;;;;28.83;21.70;;;4.90;99.90;;;;;;2077996;28;20069;-70
2022/12/19 03:14:31;;;;;;;29.02;20.90;;;5.00;99.90;;;;;;2078159;28;20025;-70
2022/12/19 03:15:32;;;;;;;29.95;21.33;;;5.00;99.90;;;;;;2075642;28;20029;-71
2022/12/19 03:16:35;;;;;;;30.38;21.88;;;5.00;99.90;;;;;;2077204;28;20076;-71
2022/12/19 03:17:37;;;;;;;30.73;21.95;;;5.00;99.90;;;;;;2077457;28;20065;-71
2022/12/19 03:18:38;;;;;;;29.15;21.48;;;5.00;99.90;;;;;;2076739;28;20040;-71
2022/12/19 03:19:39;;;;;;;31.45;22.02;;;5.10;99.90;;;;;;2078501;28;20045;-71
2022/12/19 03:20:50;;;;;;;28.05;21.67;;;5.10;99.90;;;;;;2077701;28;20022;-71
2022/12/19 03:21:51;;;;;;;;;;;5.10;99.90;;;;;;2078921;28;20281;-71
2022/12/19 03:22:52;;;;;;;30.38;22.15;;;5.10;99.90;;;;;;2076334;28;19913;-71
2022/12/19 03:23:54;;;;;;;29.60;21.55;;;5.10;99.90;;;;;;2077283;28;20032;-71
2022/12/19 03:24:54;;;;;;;30.52;21.67;;;5.10;99.90;;;;;;2076397;28;20021;-70
2022/12/19 03:26:05;;;;;;;31.48;21.88;;;5.10;99.90;;;;;;2077155;28;20028;-71
2022/12/19 03:27:19;;;;;;;32.35;21.98;;;5.20;99.90;;;;;;2075794;28;20580;-71
2022/12/19 03:28:28;;;;;;;30.17;21.75;;;5.20;99.90;;;;;;2076584;28;20032;-71
2022/12/19 03:29:34;;;;;;;27.70;19.77;;;5.20;99.90;;;;;;2082181;28;20031;-71
2022/12/19 03:30:38;;;;;;;30.52;21.27;;;5.20;99.90;;;;;;2082626;28;20401;-71
2022/12/19 03:31:41;;;;;;;30.08;21.20;;;5.20;99.90;;;;;;2078404;28;20021;-71
2022/12/19 03:32:44;;;;;;;29.30;20.70;;;5.20;99.90;;;;;;2076691;28;20434;-71
2022/12/19 03:33:47;;;;;;;27.58;20.38;;;5.20;99.90;;;;;;2074724;28;20025;-71
2022/12/19 03:34:56;;;;;;;29.38;21.08;;;5.20;99.90;;;;;;2076224;28;20048;-71
2022/12/19 03:36:00;;;;;;;28.67;20.80;;;5.30;99.90;;;;;;2078808;28;20621;-71
2022/12/19 03:37:04;;;;;;;29.95;21.98;;;5.30;99.90;;;;;;2078102;28;20040;-71
2022/12/19 03:38:05;;;;;;;29.15;20.35;;;5.30;99.90;;;;;;2076921;28;20658;-71
2022/12/19 03:39:08;;;;;;;28.38;20.25;;;5.30;99.90;;;;;;2078943;28;20029;-71
2022/12/19 03:40:14;;;;;;;28.10;21.13;;;5.40;99.90;;;;;;2078228;28;20113;-70
2022/12/19 03:43:07;;;;;;;29.15;20.40;;;5.40;99.90;;;;;;2078356;28;20083;-71
2022/12/19 03:43:58;;;;;;;30.13;21.50;;;5.40;99.90;;;;;;2078568;28;20119;-70
2022/12/19 03:45:02;;;;;;;29.45;21.67;;;5.40;99.90;;;;;;2077899;28;20037;-70
2022/12/19 03:46:22;;;;;;;28.73;20.63;;;5.40;99.90;;;;;;2078356;28;20071;-70
2022/12/19 03:47:37;;;;;;;32.00;21.20;;;5.40;99.90;;;;;;2076576;28;20029;-71
2022/12/19 03:48:44;;;;;;;27.60;19.98;;;5.40;99.90;;;;;;2077560;28;20402;-71
2022/12/19 03:49:46;;;;;;;27.88;20.20;;;5.40;99.90;;;;;;2077392;28;20024;-71
2022/12/19 03:51:11;;;;;;;28.98;21.15;;;5.40;99.90;;;;;;2075595;28;20026;-70
2022/12/19 03:52:33;;;;;;;30.20;20.80;;;5.40;99.90;;;;;;2075081;28;20120;-71
2022/12/19 03:54:00;;;;;;;27.67;20.30;;;5.40;99.90;;;;;;2076852;28;20022;-71
2022/12/19 03:55:28;;;;;;;29.45;20.35;;;5.40;99.90;;;;;;2078157;28;20102;-70
2022/12/19 03:56:47;;;;;;;29.75;20.55;;;5.40;99.90;;;;;;2078427;28;20148;-70
2022/12/19 03:58:11;;;;;;;27.50;20.17;;;5.40;99.90;;;;;;2076660;28;20351;-70
2022/12/19 03:59:21;;;;;;;28.98;21.23;;;5.40;99.90;;;;;;2075738;28;20026;-71
2022/12/19 04:00:24;;;;;;;30.00;21.20;;;5.40;99.90;;;;;;2075294;28;20813;-71
2022/12/19 04:01:26;;;;;;;29.83;20.88;;;5.40;99.90;;;;;;2076939;28;20042;-70
2022/12/19 04:02:28;;;;;;;29.25;22.00;;;5.40;99.90;;;;;;2075801;28;20017;-70
2022/12/19 04:03:30;;;;;;;27.25;21.42;;;5.50;99.90;;;;;;2077507;28;20018;-71
2022/12/19 04:04:36;;;;;;;30.05;21.80;;;5.50;99.90;;;;;;2076411;28;20030;-70
2022/12/19 04:05:40;;;;;;;28.90;20.50;;;5.50;99.90;;;;;;2077465;28;20028;-71
2022/12/19 04:06:42;;;;;;;29.65;21.42;;;5.50;99.90;;;;;;2077033;28;20014;-71
2022/12/19 04:07:43;;;;;;;30.40;22.15;;;5.50;99.90;;;;;;2077048;28;20022;-71
2022/12/19 04:08:45;;;;;;;29.23;22.25;;;5.50;99.90;;;;;;2077393;28;20152;-70
2022/12/19 04:09:47;;;;;;;30.48;21.25;;;5.60;99.90;;;;;;2077081;28;20025;-70
2022/12/19 04:10:56;;;;;;;28.83;20.65;;;5.60;99.90;;;;;;2076523;28;20030;-71
2022/12/19 04:12:01;;;;;;;28.67;20.38;;;5.60;99.90;;;;;;2077874;28;20018;-70
2022/12/19 04:13:12;;;;;;;28.52;21.63;;;5.60;99.90;;;;;;2082995;28;20693;-71
2022/12/19 04:14:18;;;;;;;;;;;5.60;99.90;;;;;;2084591;28;20033;-71
2022/12/19 04:15:30;;;;;;;29.33;20.77;;;5.50;99.90;;;;;;2077784;28;19909;-71
2022/12/19 04:16:54;;;;;;;27.33;20.50;;;5.60;99.90;;;;;;2077989;28;20036;-71
2022/12/19 04:17:57;;;;;;;32.45;22.10;;;5.60;99.90;;;;;;2076611;28;20109;-70
2022/12/19 04:19:05;;;;;;;30.98;21.38;;;5.60;99.90;;;;;;2077044;28;20075;-70
2022/12/19 04:20:10;;;;;;;31.20;21.65;;;5.60;99.90;;;;;;2074990;28;20025;-70
2022/12/19 04:21:16;;;;;;;31.65;21.85;;;5.60;99.90;;;;;;2077679;28;20513;-70
2022/12/19 04:22:24;;;;;;;32.40;21.70;;;5.60;99.90;;;;;;2076240;28;20033;-70
2022/12/19 04:23:32;;;;;;;29.45;21.67;;;5.70;99.90;;;;;;2077009;28;20022;-70
2022/12/19 04:24:36;;;;;;;27.65;20.65;;;5.60;99.90;;;;;;2075299;28;20026;-71
2022/12/19 04:25:44;;;;;;;31.05;22.00;;;5.70;99.90;;;;;;2078551;28;20061;-71
2022/12/19 04:26:48;;;;;;;30.42;21.67;;;5.60;99.90;;;;;;2076688;28;20033;-71
2022/12/19 04:27:56;;;;;;;29.58;21.70;;;5.70;99.90;;;;;;2077333;28;20716;-70
2022/12/19 04:29:01;;;;;;;34.10;23.42;;;5.70;99.90;;;;;;2077765;28;20030;-71
2022/12/19 04:30:03;;;;;;;31.73;21.63;;;5.70;99.90;;;;;;2075922;28;20025;-71
2022/12/19 04:31:05;;;;;;;29.98;21.60;;;5.70;99.90;;;;;;2076790;28;20033;-71
2022/12/19 04:32:08;;;;;;;32.05;22.23;;;5.70;99.90;;;;;;2074895;28;20062;-71
2022/12/19 04:33:08;;;;;;;29.25;21.27;;;5.80;99.90;;;;;;2075861;28;20521;-71
2022/12/19 04:34:09;;;;;;;28.98;21.65;;;5.80;99.90;;;;;;2076635;28;20425;-71
2022/12/19 04:35:10;;;;;;;28.20;20.33;;;5.80;99.90;;;;;;2075487;28;20045;-70
2022/12/19 04:36:11;;;;;;;31.83;21.15;;;5.80;99.90;;;;;;2076261;28;20041;-71
2022/12/19 04:37:12;;;;;;;31.33;21.60;;;5.80;99.90;;;;;;2077845;28;20039;-71
2022/12/19 04:38:12;;;;;;;29.42;20.77;;;5.80;99.90;;;;;;2076521;28;20029;-71
2022/12/19 04:39:13;;;;;;;32.30;20.88;;;5.80;99.90;;;;;;2075366;28;20042;-71
2022/12/19 04:40:14;;;;;;;29.67;20.98;;;5.80;99.90;;;;;;2076882;28;20033;-71
2022/12/19 04:41:15;;;;;;;30.77;20.67;;;5.90;99.90;;;;;;2075141;28;20068;-71
2022/12/19 04:42:15;;;;;;;28.73;20.85;;;5.90;99.90;;;;;;2075307;28;20032;-71
2022/12/19 04:43:16;;;;;;;28.15;21.98;;;5.90;99.90;;;;;;2077734;28;20108;-71
2022/12/19 04:44:16;;;;;;;27.65;21.08;;;5.90;99.90;;;;;;2077332;28;20025;-71
2022/12/19 04:45:17;;;;;;;26.70;19.58;;;5.90;99.90;;;;;;2077278;28;20053;-71
2022/12/19 04:46:17;;;;;;;28.13;20.98;;;5.90;99.90;;;;;;2077145;28;20478;-71
2022/12/19 04:47:18;;;;;;;27.88;19.98;;;5.90;99.90;;;;;;2077687;28;20030;-71
2022/12/19 04:48:19;;;;;;;28.17;20.95;;;6.00;99.90;;;;;;2084276;28;20029;-71
2022/12/19 04:49:19;;;;;;;27.50;20.33;;;6.00;99.90;;;;;;2082906;28;20112;-71
2022/12/19 04:50:20;;;;;;;26.35;19.13;;;6.00;99.90;;;;;;2077481;28;20037;-70
2022/12/19 04:51:21;;;;;;;26.23;20.40;;;6.00;99.90;;;;;;2077781;28;20021;-71
2022/12/19 04:52:21;;;;;;;27.90;20.88;;;6.00;99.90;;;;;;2076149;28;20025;-71
2022/12/19 04:53:22;;;;;;;26.63;19.83;;;6.00;99.90;;;;;;2078030;28;20048;-71
2022/12/19 04:54:22;;;;;;;32.17;20.83;;;6.00;99.90;;;;;;2075957;28;20064;-71
2022/12/19 04:55:23;;;;;;;27.55;19.80;;;6.00;99.90;;;;;;2077476;28;20097;-71
2022/12/19 04:56:24;;;;;;;28.90;20.33;;;6.00;99.90;;;;;;2076775;28;20036;-71
2022/12/19 04:57:27;;;;;;;27.65;20.73;;;6.10;99.90;;;;;;2077205;28;20036;-71
2022/12/19 04:58:27;;;;;;;30.33;21.13;;;6.10;99.90;;;;;;2076075;28;20060;-71
2022/12/19 04:59:28;;;;;;;28.30;19.65;;;6.10;99.90;;;;;;2074938;28;20101;-71
2022/12/19 05:00:29;;;;;;;27.83;20.90;;;6.10;99.90;;;;;;2076237;28;20022;-71
2022/12/19 05:01:29;;;;;;;26.95;19.55;;;6.10;99.90;;;;;;2077164;28;20034;-71
2022/12/19 05:02:30;;;;;;;29.42;20.30;;;6.10;99.90;;;;;;2076897;28;20462;-71
2022/12/19 05:03:31;;;;;;;27.40;20.42;;;6.10;99.90;;;;;;2076995;28;20109;-71
2022/12/19 05:04:32;;;;;;;28.95;19.23;;;6.10;99.90;;;;;;2076975;28;20022;-71
2022/12/19 05:05:32;;;;;;;29.73;20.73;;;6.10;99.90;;;;;;2076270;28;20101;-71
2022/12/19 05:06:33;;;;;;;28.10;20.35;;;6.10;99.90;;;;;;2077571;28;20087;-71
2022/12/19 05:07:33;;;;;;;27.20;19.95;;;6.20;99.90;;;;;;2085521;28;20050;-71
2022/12/19 05:08:36;;;;;;;28.15;21.08;;;6.20;99.90;;;;;;2085147;28;20043;-71
2022/12/19 05:09:36;;;;;;;29.10;20.90;;;6.20;99.90;;;;;;2077036;28;20120;-71
2022/12/19 05:10:37;;;;;;;29.58;20.70;;;6.20;99.90;;;;;;2077269;28;20026;-71
2022/12/19 05:11:37;;;;;;;29.58;21.13;;;6.20;99.90;;;;;;2074970;28;20036;-70
2022/12/19 05:12:38;;;;;;;29.38;20.75;;;6.20;99.90;;;;;;2076667;28;20047;-71
2022/12/19 05:13:38;;;;;;;31.27;20.48;;;6.20;99.90;;;;;;2085632;28;20017;-71
2022/12/19 05:14:39;;;;;;;27.58;20.13;;;6.20;99.90;;;;;;2075546;28;20556;-71
2022/12/19 05:15:39;;;;;;;29.00;19.23;;;6.20;99.90;;;;;;2075582;28;20022;-71
2022/12/19 05:16:40;;;;;;;26.70;19.75;;;6.20;99.90;;;;;;2077388;28;20754;-71
2022/12/19 05:17:41;;;;;;;27.38;20.67;;;6.20;99.90;;;;;;2076944;28;20450;-71
2022/12/19 05:18:41;;;;;;;29.05;20.13;;;6.20;99.90;;;;;;2075707;28;20018;-71
2022/12/19 05:19:42;;;;;;;30.38;20.35;;;6.20;99.90;;;;;;2075539;28;20056;-71
2022/12/19 05:20:46;;;;;;;31.50;20.50;;;6.30;99.90;;;;;;2076474;28;20014;-71
2022/12/19 05:21:47;;;;;;;27.42;20.33;;;6.30;99.90;;;;;;2075779;28;20033;-71
2022/12/19 05:22:48;;;;;;;27.85;19.30;;;6.20;99.90;;;;;;2077451;28;20022;-71
2022/12/19 05:23:50;;;;;;;28.40;19.92;;;6.30;99.90;;;;;;2084351;28;20045;-71
2022/12/19 05:24:50;;;;;;;27.67;21.40;;;6.30;99.90;;;;;;2082663;28;20435;-71
2022/12/19 05:25:51;;;;;;;26.65;21.15;;;6.30;99.90;;;;;;2078153;28;20060;-71
2022/12/19 05:26:52;;;;;;;26.40;20.48;;;6.30;99.90;;;;;;2076979;28;20144;-71
2022/12/19 05:27:52;;;;;;;26.80;20.60;;;6.30;99.90;;;;;;2075736;28;20029;-71
2022/12/19 05:28:53;;;;;;;29.48;20.25;;;6.30;99.90;;;;;;2077151;28;20024;-71
2022/12/19 05:29:53;;;;;;;27.30;19.20;;;6.30;99.90;;;;;;2076248;28;20025;-71
2022/12/19 05:31:13;;;;;;;26.70;19.55;;;6.30;99.90;;;;;;2074797;28;20128;-71
2022/12/19 05:32:14;;;;;;;29.60;21.23;;;6.30;99.90;;;;;;2076702;28;20928;-71
2022/12/19 05:33:14;;;;;;;27.10;20.60;;;6.30;99.90;;;;;;2077360;28;20450;-71
2022/12/19 05:34:15;;;;;;;27.33;20.15;;;6.30;99.90;;;;;;2075750;28;20033;-71
2022/12/19 05:35:16;;;;;;;27.38;20.23;;;6.30;99.90;;;;;;2074830;28;20778;-71
2022/12/19 05:36:17;;;;;;;23.58;19.08;;;6.30;99.90;;;;;;2076413;28;20088;-71
2022/12/19 05:37:17;;;;;;;27.42;19.92;;;6.40;99.90;;;;;;2076588;28;20111;-71